Lee, Maine
Current Conditions -  °F | °C
As of 11:53 PM on Friday 28 Nov 2014 (Local Time) from KMLT Reporting Station
Clear Clear  
Wind Chill: 12°   Ceiling: Unl
Heat Index: 20°   Visibility: 10mi
Dew Point: 10°   Wind: 6mph
Humidity: 65%   Direction: 290°WNW
Pressure: 30.08"   Gusts: NA
Location:  45.36°N, 68.29°W
Report Text: KMLT 290453Z AUTO 29005KT 10SM CLR M07/M12 A3008 RMK AO2 SLP198 T10671122 410331133
Loading
Personal Weather Stations






























Interactive Weather Map New forecast layout! Learn more

10-Day Weather Forecast

Advertisements
Track Severe Weather on mobile